createdAt,value
2019-02-06T00:00:09.603Z,7.8
2019-02-06T00:01:11.173Z,7.8
2019-02-06T00:02:12.449Z,7.8
2019-02-06T00:03:14.080Z,7.9
2019-02-06T00:04:16.805Z,7.9
2019-02-06T00:05:18.895Z,7.9
2019-02-06T00:06:20.407Z,7.9
2019-02-06T00:07:22.279Z,7.9
2019-02-06T00:08:23.923Z,7.2
2019-02-06T00:09:25.265Z,7.2
2019-02-06T00:10:27.054Z,7.3
2019-02-06T00:11:28.575Z,7.3
2019-02-06T00:12:30.282Z,7.4
2019-02-06T00:13:32.115Z,7.4
2019-02-06T00:14:34.800Z,7.4
2019-02-06T00:15:36.737Z,7.5
2019-02-06T00:16:53.992Z,7.5
2019-02-06T00:17:55.664Z,7.6
2019-02-06T00:18:57.224Z,7.7
2019-02-06T00:19:58.683Z,7.8
2019-02-06T00:21:00.130Z,7.8
2019-02-06T00:22:01.725Z,7.2
2019-02-06T00:23:02.983Z,7.3
2019-02-06T00:24:04.687Z,7.4
2019-02-06T00:25:05.940Z,7.4
2019-02-06T00:26:07.901Z,7.4
2019-02-06T00:27:10.141Z,7.5
2019-02-06T00:28:12.004Z,7.5
2019-02-06T00:29:13.594Z,7.6
2019-02-06T00:30:15.004Z,7.6
2019-02-06T00:31:16.413Z,7.7
2019-02-06T00:32:18.198Z,7.6
2019-02-06T00:33:19.608Z,7.7
2019-02-06T00:34:21.175Z,7.8
2019-02-06T00:35:27.643Z,7.8
2019-02-06T00:36:29.209Z,7.8
2019-02-06T00:37:33.321Z,7.8
2019-02-06T00:38:35.214Z,7.8
2019-02-06T00:39:51.678Z,7.8
2019-02-06T00:40:53.374Z,7.8
2019-02-06T00:41:54.929Z,7.8
2019-02-06T00:42:56.169Z,7.8
2019-02-06T00:43:57.605Z,7.8
2019-02-06T00:44:59.364Z,7.8
2019-02-06T00:46:00.746Z,7.8
2019-02-06T00:47:02.340Z,7.8
2019-02-06T00:48:03.986Z,7.8
2019-02-06T00:49:05.283Z,7.8
2019-02-06T00:50:07.915Z,7.8
2019-02-06T00:51:09.873Z,7.8
2019-02-06T00:52:11.443Z,7.9
2019-02-06T00:53:13.014Z,7.9
2019-02-06T00:54:14.364Z,7.9
2019-02-06T00:55:15.956Z,7.9
2019-02-06T00:56:17.534Z,7.9
2019-02-06T00:57:19.108Z,7.9
2019-02-06T00:58:20.894Z,7.9
2019-02-06T00:59:23.863Z,7.9
2019-02-06T01:00:25.611Z,7.9
2019-02-06T01:01:27.112Z,7.9
2019-02-06T01:02:28.684Z,7.9
2019-02-06T01:03:30.274Z,7.9
2019-02-06T01:04:31.686Z,7.9
2019-02-06T01:05:40.186Z,7.9
2019-02-06T01:06:41.756Z,7.9
2019-02-06T01:07:43.304Z,7.9
2019-02-06T01:08:44.723Z,7.9
2019-02-06T01:09:47.115Z,7.9
2019-02-06T01:10:48.760Z,7.9
2019-02-06T01:11:50.505Z,7.9
2019-02-06T01:12:52.087Z,7.9
2019-02-06T01:13:53.344Z,7.9
2019-02-06T01:14:54.772Z,7.8
2019-02-06T01:15:56.430Z,7.9
2019-02-06T01:16:57.981Z,7.9
2019-02-06T01:17:59.556Z,7.9
2019-02-06T01:19:01.302Z,7.8
2019-02-06T01:20:04.035Z,7.9
2019-02-06T01:21:05.904Z,7.9
2019-02-06T01:22:07.324Z,7.8
2019-02-06T01:23:08.884Z,7.3
2019-02-06T01:24:10.440Z,7.3
2019-02-06T01:25:11.875Z,7.3
2019-02-06T01:26:13.493Z,7.4
2019-02-06T01:27:15.054Z,7.4
2019-02-06T01:28:16.474Z,7.4
2019-02-06T01:29:19.623Z,7.4
2019-02-06T01:30:21.530Z,7.4
2019-02-06T01:31:23.094Z,7.4
2019-02-06T01:32:24.654Z,7.5
2019-02-06T01:33:26.236Z,7.5
2019-02-06T01:34:27.824Z,7.5
2019-02-06T01:35:29.382Z,7.4
2019-02-06T01:36:30.857Z,7.4
2019-02-06T01:37:32.491Z,7.4
2019-02-06T01:38:35.337Z,7.4
2019-02-06T01:39:37.114Z,7.4
2019-02-06T01:40:38.664Z,7.4
2019-02-06T01:41:40.237Z,7.4
2019-02-06T01:42:41.502Z,7.4
2019-02-06T01:43:43.056Z,7.4
2019-02-06T01:44:44.460Z,7.4
2019-02-06T01:45:46.006Z,7.4
2019-02-06T01:46:47.698Z,7.4
2019-02-06T01:47:50.613Z,7.4
2019-02-06T01:48:52.071Z,7.4
2019-02-06T01:49:53.403Z,7.3
2019-02-06T01:50:54.804Z,7.3
2019-02-06T01:51:56.376Z,7.3
2019-02-06T01:52:57.623Z,7.3
2019-02-06T01:53:59.028Z,7.3
2019-02-06T01:55:00.588Z,7.3
2019-02-06T01:56:02.155Z,7.3
2019-02-06T01:57:04.335Z,7.3
2019-02-06T01:58:06.156Z,7.4
2019-02-06T01:59:08.011Z,7.4
2019-02-06T02:00:09.262Z,7.4
2019-02-06T02:01:10.804Z,7.4
2019-02-06T02:02:12.051Z,7.4
2019-02-06T02:03:13.704Z,7.4
2019-02-06T02:04:15.284Z,7.4
2019-02-06T02:05:16.840Z,7.4
2019-02-06T02:06:18.322Z,7.3
2019-02-06T02:07:20.956Z,7.2
2019-02-06T02:08:22.917Z,7.2
2019-02-06T02:09:24.487Z,7.1
2019-02-06T02:10:26.038Z,7.1
2019-02-06T02:11:27.634Z,7.1
2019-02-06T02:12:28.714Z,7.1
2019-02-06T02:13:30.288Z,7.1
2019-02-06T02:14:31.844Z,7.2
2019-02-06T02:15:33.387Z,7.2
2019-02-06T02:16:36.304Z,7.2
2019-02-06T02:17:38.124Z,7.2
2019-02-06T02:18:39.234Z,7.2
2019-02-06T02:19:40.655Z,7.2
2019-02-06T02:20:42.273Z,7.2
2019-02-06T02:21:43.584Z,7.2
2019-02-06T02:22:59.814Z,7.2
2019-02-06T02:24:01.218Z,7.1
2019-02-06T02:25:02.794Z,7.2
2019-02-06T02:26:04.380Z,7.1
2019-02-06T02:27:05.957Z,7.1
2019-02-06T02:28:08.393Z,7.1
2019-02-06T02:29:09.822Z,7.1
2019-02-06T02:30:11.486Z,7.1
2019-02-06T02:31:13.113Z,7.1
2019-02-06T02:32:14.682Z,7.1
2019-02-06T02:33:16.129Z,7.1
2019-02-06T02:34:17.528Z,7.1
2019-02-06T02:35:19.124Z,7.1
2019-02-06T02:36:20.703Z,7.1
2019-02-06T02:37:22.151Z,7.1
2019-02-06T02:38:25.160Z,7.1
2019-02-06T02:39:26.806Z,7.1
2019-02-06T02:40:28.375Z,7.1
2019-02-06T02:41:29.791Z,7.1
2019-02-06T02:42:31.377Z,7.1
2019-02-06T02:43:32.956Z,7.1
2019-02-06T02:44:34.534Z,7.1
2019-02-06T02:45:35.967Z,7.1
2019-02-06T02:46:37.541Z,7.1
2019-02-06T02:47:39.657Z,7.1
2019-02-06T02:48:41.264Z,7.1
2019-02-06T02:49:42.742Z,7.2
2019-02-06T02:50:44.181Z,7.2
2019-02-06T02:51:46.074Z,7.2
2019-02-06T02:52:47.546Z,7.2
2019-02-06T02:53:48.957Z,7.2
2019-02-06T02:54:50.374Z,7.2
2019-02-06T02:55:51.960Z,7.2
2019-02-06T02:56:53.524Z,7.2
2019-02-06T02:57:56.374Z,7.2
2019-02-06T02:58:58.215Z,7.2
2019-02-06T02:59:59.894Z,7.2
2019-02-06T03:01:01.474Z,7.2
2019-02-06T03:02:03.054Z,7.2
2019-02-06T03:03:04.320Z,7.2
2019-02-06T03:04:05.904Z,7.2
2019-02-06T03:05:07.312Z,7.2
2019-02-06T03:06:08.720Z,7.2
2019-02-06T03:07:11.233Z,7.2
2019-02-06T03:08:12.866Z,7.3
2019-02-06T03:09:14.454Z,7.3
2019-02-06T03:10:16.034Z,7.3
2019-02-06T03:11:17.446Z,7.3
2019-02-06T03:12:18.883Z,7.4
2019-02-06T03:13:20.446Z,7.4
2019-02-06T03:14:22.023Z,7.4
2019-02-06T03:15:23.733Z,7.4
2019-02-06T03:16:25.541Z,7.4
2019-02-06T03:17:28.049Z,7.4
2019-02-06T03:18:29.574Z,7.4
2019-02-06T03:19:31.138Z,7.4
2019-02-06T03:20:32.699Z,7.4
2019-02-06T03:21:34.275Z,7.5
2019-02-06T03:22:35.642Z,7.5
2019-02-06T03:23:37.414Z,7.5
2019-02-06T03:24:38.897Z,7.5
2019-02-06T03:25:40.434Z,7.5
2019-02-06T03:26:43.577Z,7.6
2019-02-06T03:27:45.280Z,7.6
2019-02-06T03:28:46.997Z,7.6
2019-02-06T03:29:48.556Z,7.7
2019-02-06T03:30:50.044Z,7.7
2019-02-06T03:31:51.678Z,7.6
2019-02-06T03:32:53.305Z,7.5
2019-02-06T03:33:54.896Z,7.5
2019-02-06T03:34:56.297Z,7.5
2019-02-06T03:35:58.119Z,7.5
2019-02-06T03:37:00.505Z,7.5
2019-02-06T03:38:02.313Z,7.5
2019-02-06T03:39:03.926Z,7.6
2019-02-06T03:40:05.485Z,7.6
2019-02-06T03:41:06.728Z,7.6
2019-02-06T03:42:08.319Z,7.6
2019-02-06T03:43:09.874Z,7.7
2019-02-06T03:44:11.140Z,7.7
2019-02-06T03:45:12.752Z,7.8
2019-02-06T03:46:15.333Z,7.8
2019-02-06T03:47:17.296Z,7.8
2019-02-06T03:48:18.893Z,7.8
2019-02-06T03:49:20.306Z,7.7
2019-02-06T03:50:21.764Z,7.7
2019-02-06T03:51:23.174Z,7.7
2019-02-06T03:52:24.764Z,7.6
2019-02-06T03:53:26.322Z,7.6
2019-02-06T03:54:27.751Z,7.6
2019-02-06T03:55:30.389Z,7.5
2019-02-06T03:56:32.200Z,7.5
2019-02-06T03:57:33.733Z,7.5
2019-02-06T03:58:35.290Z,7.5
2019-02-06T03:59:36.897Z,7.5
2019-02-06T04:00:38.695Z,7.5
2019-02-06T04:01:40.317Z,7.5
2019-02-06T04:02:41.890Z,7.4
2019-02-06T04:03:43.336Z,7.4
2019-02-06T04:04:46.208Z,7.4
2019-02-06T04:05:47.684Z,7.5
2019-02-06T04:07:04.229Z,7.5
2019-02-06T04:08:05.903Z,7.6
2019-02-06T04:09:07.526Z,7.7
2019-02-06T04:10:09.220Z,7.8
2019-02-06T04:11:10.774Z,7.8
2019-02-06T04:12:12.644Z,7.9
2019-02-06T04:13:14.144Z,7.9
2019-02-06T04:14:15.773Z,7.9
2019-02-06T04:15:17.388Z,7.8
2019-02-06T04:16:18.968Z,7.8
2019-02-06T04:17:21.868Z,7.7
2019-02-06T04:18:23.701Z,7.6
2019-02-06T04:19:25.272Z,7.6
2019-02-06T04:20:26.925Z,7.5
2019-02-06T04:21:28.601Z,7.4
2019-02-06T04:22:30.203Z,7.3
2019-02-06T04:23:31.614Z,7.2
2019-02-06T04:24:33.054Z,7.2
2019-02-06T04:25:34.631Z,7.2
2019-02-06T04:26:36.836Z,7.2
2019-02-06T04:27:38.728Z,7.2
2019-02-06T04:28:40.114Z,7.2
2019-02-06T04:29:41.528Z,7.2
2019-02-06T04:30:43.125Z,7.2
2019-02-06T04:31:44.669Z,7.2
2019-02-06T04:32:46.235Z,7.2
2019-02-06T04:33:47.812Z,7.3
2019-02-06T04:34:49.399Z,7.3
2019-02-06T04:35:51.102Z,7.4
2019-02-06T04:37:07.475Z,7.4
2019-02-06T04:38:09.041Z,7.5
2019-02-06T04:39:12.074Z,7.5
2019-02-06T04:40:13.976Z,7.6
2019-02-06T04:41:15.546Z,7.7
2019-02-06T04:42:17.023Z,7.8
2019-02-06T04:43:18.580Z,7.8
2019-02-06T04:44:20.004Z,7.8
2019-02-06T04:45:21.582Z,7.8
2019-02-06T04:46:22.992Z,7.8
2019-02-06T04:47:24.522Z,7.8
2019-02-06T04:48:27.317Z,7.8
2019-02-06T04:49:29.110Z,7.8
2019-02-06T04:50:30.706Z,7.8
2019-02-06T04:51:32.131Z,7.8
2019-02-06T04:52:33.556Z,7.8
2019-02-06T04:53:34.967Z,7.8
2019-02-06T04:54:36.375Z,7.8
2019-02-06T04:55:37.941Z,7.8
2019-02-06T04:56:39.631Z,7.8
2019-02-06T04:57:41.625Z,7.8
2019-02-06T04:58:43.211Z,7.8
2019-02-06T04:59:45.283Z,7.8
2019-02-06T05:00:46.784Z,7.8
2019-02-06T05:01:48.390Z,7.8
2019-02-06T05:02:50.025Z,7.8
2019-02-06T05:03:51.479Z,7.8
2019-02-06T05:04:52.912Z,7.8
2019-02-06T05:05:54.514Z,7.8
2019-02-06T05:06:56.066Z,7.8
2019-02-06T05:07:59.251Z,7.9
2019-02-06T05:09:01.084Z,7.9
2019-02-06T05:10:02.345Z,7.8
2019-02-06T05:11:03.780Z,7.2
2019-02-06T05:12:05.374Z,7.2
2019-02-06T05:13:06.779Z,7.2
2019-02-06T05:14:08.334Z,7.2
2019-02-06T05:15:09.933Z,7.3
2019-02-06T05:16:11.523Z,7.3
2019-02-06T05:17:14.688Z,7.3
2019-02-06T05:18:16.433Z,7.3
2019-02-06T05:19:17.868Z,7.3
2019-02-06T05:20:19.417Z,7.3
2019-02-06T05:21:20.994Z,7.3
2019-02-06T05:22:22.559Z,7.3
2019-02-06T05:23:24.160Z,7.3
2019-02-06T05:24:25.748Z,7.3
2019-02-06T05:25:27.186Z,7.3
2019-02-06T05:26:29.106Z,7.3
2019-02-06T05:27:30.583Z,7.3
2019-02-06T05:28:31.996Z,7.2
2019-02-06T05:29:33.429Z,7.2
2019-02-06T05:30:34.849Z,7.2
2019-02-06T05:31:36.421Z,7.2
2019-02-06T05:32:43.275Z,7.2
2019-02-06T05:33:44.515Z,7.2
2019-02-06T05:34:45.793Z,7.2
2019-02-06T05:35:47.245Z,7.2
2019-02-06T05:36:52.634Z,7.2
2019-02-06T05:37:54.733Z,7.2
2019-02-06T05:38:56.673Z,7.2
2019-02-06T05:39:57.954Z,7.2
2019-02-06T05:40:59.451Z,7.2
2019-02-06T05:42:01.064Z,7.2
2019-02-06T05:43:02.696Z,7.2
2019-02-06T05:44:04.295Z,7.2
2019-02-06T05:45:05.725Z,7.2
2019-02-06T05:46:07.465Z,7.2
2019-02-06T05:47:10.008Z,7.2
2019-02-06T05:48:11.766Z,7.2
2019-02-06T05:49:13.344Z,7.2
2019-02-06T05:50:14.901Z,7.2
2019-02-06T05:51:16.476Z,7.2
2019-02-06T05:52:18.045Z,7.2
2019-02-06T05:53:19.672Z,7.2
2019-02-06T05:54:21.167Z,7.2
2019-02-06T05:55:22.591Z,7.2
2019-02-06T05:56:25.553Z,7.2
2019-02-06T05:57:27.526Z,7.2
2019-02-06T05:58:28.965Z,7.2
2019-02-06T05:59:30.206Z,7.2
2019-02-06T06:00:31.771Z,7.2
2019-02-06T06:01:33.224Z,7.2
2019-02-06T06:02:34.815Z,7.2
2019-02-06T06:03:36.362Z,7.2
2019-02-06T06:04:37.762Z,7.2
2019-02-06T06:05:40.952Z,7.2
2019-02-06T06:06:42.754Z,7.2
2019-02-06T06:07:47.091Z,7.2
2019-02-06T06:08:48.759Z,7.2
2019-02-06T06:09:50.177Z,7.2
2019-02-06T06:10:51.846Z,7.2
2019-02-06T06:11:53.435Z,7.2
2019-02-06T06:12:55.021Z,7.2
2019-02-06T06:13:56.646Z,7.2
2019-02-06T06:14:58.835Z,7.2
2019-02-06T06:16:01.109Z,7.2
2019-02-06T06:17:03.117Z,7.2
2019-02-06T06:18:04.713Z,7.3
2019-02-06T06:19:06.000Z,7.3
2019-02-06T06:20:07.404Z,7.4
2019-02-06T06:21:08.515Z,7.4
2019-02-06T06:22:10.205Z,7.5
2019-02-06T06:23:11.636Z,7.6
2019-02-06T06:24:13.310Z,7.7
2019-02-06T06:25:15.336Z,7.8
2019-02-06T06:26:17.215Z,7.9
2019-02-06T06:27:18.483Z,7.9
2019-02-06T06:28:19.923Z,7.9
2019-02-06T06:29:21.611Z,7.9
2019-02-06T06:30:23.215Z,7.9
2019-02-06T06:31:24.515Z,7.9
2019-02-06T06:32:26.090Z,7.9
2019-02-06T06:33:27.856Z,7.9
2019-02-06T06:34:30.140Z,7.9
2019-02-06T06:35:31.877Z,7.9
2019-02-06T06:36:33.308Z,7.9
2019-02-06T06:37:34.887Z,7.9
2019-02-06T06:38:36.447Z,7.9
2019-02-06T06:39:37.706Z,7.9
2019-02-06T06:40:39.520Z,7.8
2019-02-06T06:41:41.114Z,7.8
2019-02-06T06:42:42.706Z,7.9
2019-02-06T06:43:45.762Z,7.9
2019-02-06T06:44:47.304Z,7.9
2019-02-06T06:45:48.885Z,7.9
2019-02-06T06:46:50.313Z,7.9
2019-02-06T06:47:51.993Z,7.2
2019-02-06T06:48:53.557Z,7.3
2019-02-06T06:49:55.156Z,7.3
2019-02-06T06:50:56.734Z,7.4
2019-02-06T06:51:58.003Z,7.4
2019-02-06T06:53:00.165Z,7.4
2019-02-06T06:54:01.576Z,7.5
2019-02-06T06:55:03.159Z,7.5
2019-02-06T06:56:04.573Z,7.6
2019-02-06T06:57:06.158Z,7.6
2019-02-06T06:58:07.838Z,7.7
2019-02-06T06:59:09.421Z,7.8
2019-02-06T07:00:10.837Z,7.8
2019-02-06T07:01:12.694Z,7.8
2019-02-06T07:02:14.251Z,7.9
2019-02-06T07:03:17.365Z,7.9
2019-02-06T07:04:19.293Z,7.8
2019-02-06T07:05:20.735Z,7.9
2019-02-06T07:06:22.365Z,7.9
2019-02-06T07:07:23.754Z,7.8
2019-02-06T07:08:25.311Z,7.8
2019-02-06T07:09:26.891Z,7.8
2019-02-06T07:10:28.481Z,7.8
2019-02-06T07:11:30.055Z,7.9
2019-02-06T07:12:32.398Z,7.8
2019-02-06T07:13:34.143Z,7.8
2019-02-06T07:14:35.418Z,7.8
2019-02-06T07:15:37.032Z,7.8
2019-02-06T07:16:38.607Z,7.7
2019-02-06T07:17:39.895Z,7.7
2019-02-06T07:18:41.171Z,7.6
2019-02-06T07:19:42.750Z,7.6
2019-02-06T07:20:44.165Z,7.5
2019-02-06T07:21:45.786Z,7.4
2019-02-06T07:22:48.073Z,7.4
2019-02-06T07:23:49.947Z,7.3
2019-02-06T07:24:51.324Z,7.2
2019-02-06T07:25:53.022Z,7.2
2019-02-06T07:26:54.557Z,7.2
2019-02-06T07:27:56.194Z,7.2
2019-02-06T07:28:57.446Z,7.2
2019-02-06T07:29:59.110Z,7.2
2019-02-06T07:31:00.687Z,7.2
2019-02-06T07:32:03.645Z,7.2
2019-02-06T07:34:38.690Z,7.2
2019-02-06T07:35:40.311Z,7.2
2019-02-06T07:36:42.777Z,7.2
2019-02-06T07:37:44.375Z,7.2
2019-02-06T07:38:46.207Z,7.2
2019-02-06T07:39:47.779Z,7.3
2019-02-06T07:40:49.185Z,7.3
2019-02-06T07:41:50.593Z,7.4
2019-02-06T07:42:52.184Z,7.4
2019-02-06T07:43:53.611Z,7.5
2019-02-06T07:44:55.196Z,7.5
2019-02-06T07:45:56.843Z,7.6
2019-02-06T07:46:59.113Z,7.7
2019-02-06T07:48:01.093Z,7.7
2019-02-06T07:49:02.673Z,7.7
2019-02-06T07:50:04.101Z,7.8
2019-02-06T07:51:05.525Z,7.8
2019-02-06T07:52:07.077Z,7.8
2019-02-06T07:53:08.502Z,7.8
2019-02-06T07:54:09.917Z,7.8
2019-02-06T07:55:11.191Z,7.8
2019-02-06T07:56:14.091Z,7.8
2019-02-06T07:57:15.783Z,7.8
2019-02-06T07:58:17.295Z,7.8
2019-02-06T07:59:18.903Z,7.8
2019-02-06T08:00:20.485Z,7.8
2019-02-06T08:01:21.915Z,7.8
2019-02-06T08:02:29.265Z,7.8
2019-02-06T08:03:30.659Z,7.8
2019-02-06T08:04:32.285Z,7.7
2019-02-06T08:05:33.865Z,7.7
2019-02-06T08:06:36.814Z,7.8
2019-02-06T08:07:38.549Z,7.7
2019-02-06T08:08:39.999Z,7.7
2019-02-06T08:09:41.575Z,7.7
2019-02-06T08:10:43.164Z,7.7
2019-02-06T08:11:44.757Z,7.7
2019-02-06T08:12:46.333Z,7.7
2019-02-06T08:13:47.929Z,7.7
2019-02-06T08:14:49.497Z,7.7
2019-02-06T08:15:52.143Z,7.7
2019-02-06T08:16:53.862Z,7.7
2019-02-06T08:17:55.277Z,7.8
2019-02-06T08:18:56.696Z,7.8
2019-02-06T08:19:58.114Z,7.8
2019-02-06T08:20:59.740Z,7.8
2019-02-06T08:22:01.227Z,7.8
2019-02-06T08:23:02.784Z,7.8
2019-02-06T08:24:04.419Z,7.7
2019-02-06T08:25:06.245Z,7.7
2019-02-06T08:26:08.189Z,7.7
2019-02-06T08:27:09.985Z,7.7
2019-02-06T08:28:11.583Z,7.7
2019-02-06T08:29:13.157Z,7.7
2019-02-06T08:30:14.761Z,7.7
2019-02-06T08:31:16.193Z,7.7
2019-02-06T08:32:17.598Z,7.6
2019-02-06T08:33:19.185Z,7.6
2019-02-06T08:34:20.777Z,7.5
2019-02-06T08:35:23.574Z,7.5
2019-02-06T08:36:25.624Z,7.5
2019-02-06T08:37:27.052Z,7.5
2019-02-06T08:38:28.907Z,7.4
2019-02-06T08:39:30.591Z,7.4
2019-02-06T08:40:32.036Z,7.3
2019-02-06T08:41:33.456Z,7.3
2019-02-06T08:42:34.844Z,7.3
2019-02-06T08:43:36.421Z,7.3
2019-02-06T08:44:37.884Z,7.3
2019-02-06T08:45:40.858Z,7.3
2019-02-06T08:46:42.769Z,7.3
2019-02-06T08:47:44.418Z,7.3
2019-02-06T08:48:45.680Z,7.3
2019-02-06T08:49:47.266Z,7.3
2019-02-06T08:50:48.867Z,7.3
2019-02-06T08:51:50.466Z,7.3
2019-02-06T08:52:51.897Z,7.2
2019-02-06T08:53:53.490Z,7.2
2019-02-06T08:54:56.654Z,7.2
2019-02-06T08:55:58.574Z,7.2
2019-02-06T08:57:00.022Z,7.2
2019-02-06T08:58:01.421Z,7.2
2019-02-06T08:59:02.844Z,7.2
2019-02-06T09:00:04.413Z,7.2
2019-02-06T09:01:05.839Z,7.2
2019-02-06T09:02:07.234Z,7.2
2019-02-06T09:03:08.788Z,7.2
2019-02-06T09:04:11.249Z,7.2
2019-02-06T09:05:12.821Z,7.2
2019-02-06T09:06:14.438Z,7.2
2019-02-06T09:07:15.702Z,7.2
2019-02-06T09:08:17.284Z,7.2
2019-02-06T09:09:18.536Z,7.2
2019-02-06T09:10:19.967Z,7.2
2019-02-06T09:11:21.566Z,7.3
2019-02-06T09:12:22.737Z,7.3
2019-02-06T09:13:24.358Z,7.4
2019-02-06T09:14:25.927Z,7.5
2019-02-06T09:15:28.976Z,7.5
2019-02-06T09:16:30.591Z,7.6
2019-02-06T09:17:32.257Z,7.6
2019-02-06T09:18:33.847Z,7.7
2019-02-06T09:19:35.485Z,7.8
2019-02-06T09:20:37.102Z,7.8
2019-02-06T09:21:38.715Z,7.8
2019-02-06T09:22:40.144Z,7.8
2019-02-06T09:23:43.094Z,7.8
2019-02-06T09:24:44.953Z,7.8
2019-02-06T09:26:02.198Z,7.8
2019-02-06T09:27:03.943Z,7.8
2019-02-06T09:28:05.505Z,7.8
2019-02-06T09:29:07.094Z,7.7
2019-02-06T09:30:08.675Z,7.7
2019-02-06T09:31:09.930Z,7.7
2019-02-06T09:32:11.520Z,7.7
2019-02-06T09:33:13.085Z,7.7
2019-02-06T09:34:14.654Z,7.7
2019-02-06T09:35:17.600Z,7.7
2019-02-06T09:36:19.352Z,7.6
2019-02-06T09:37:20.745Z,7.6
2019-02-06T09:38:22.155Z,7.6
2019-02-06T09:39:23.778Z,7.5
2019-02-06T09:40:25.358Z,7.5
2019-02-06T09:41:26.937Z,7.4
2019-02-06T09:42:28.508Z,7.4
2019-02-06T09:43:30.054Z,7.4
2019-02-06T09:44:31.947Z,7.3
2019-02-06T09:45:33.284Z,7.3
2019-02-06T09:46:34.708Z,7.3
2019-02-06T09:47:36.279Z,7.3
2019-02-06T09:48:37.888Z,7.2
2019-02-06T09:49:42.469Z,7.2
2019-02-06T09:50:44.050Z,7.2
2019-02-06T09:51:45.474Z,7.2
2019-02-06T09:52:46.897Z,7.2
2019-02-06T09:53:48.452Z,7.2
2019-02-06T09:54:51.287Z,7.2
2019-02-06T09:55:54.935Z,7.2
2019-02-06T09:56:56.528Z,7.2
2019-02-06T09:57:58.109Z,7.2
2019-02-06T09:58:59.685Z,7.3
2019-02-06T10:00:01.369Z,7.3
2019-02-06T10:01:02.808Z,7.3
2019-02-06T10:02:04.227Z,7.3
2019-02-06T10:03:05.640Z,7.4
2019-02-06T10:04:07.058Z,7.5
2019-02-06T10:05:10.281Z,7.5
2019-02-06T10:06:12.210Z,7.6
2019-02-06T10:07:13.488Z,7.7
2019-02-06T10:08:14.897Z,7.7
2019-02-06T10:09:24.515Z,7.8
2019-02-06T10:10:26.105Z,7.8
2019-02-06T10:11:27.522Z,7.2
2019-02-06T10:12:29.116Z,7.3
2019-02-06T10:13:30.680Z,7.4
2019-02-06T10:14:32.244Z,7.5
2019-02-06T10:15:35.260Z,7.5
2019-02-06T10:16:36.915Z,7.6
2019-02-06T10:17:38.491Z,7.7
2019-02-06T10:18:40.074Z,7.7
2019-02-06T10:19:44.060Z,7.8
2019-02-06T10:20:45.622Z,7.9
2019-02-06T10:21:50.341Z,7.9
2019-02-06T10:22:54.820Z,7.9
2019-02-06T10:23:56.395Z,7.9
2019-02-06T10:24:57.495Z,7.9
2019-02-06T10:25:59.236Z,7.9
2019-02-06T10:27:01.680Z,7.8
2019-02-06T10:28:03.566Z,7.8
2019-02-06T10:29:05.292Z,7.8
2019-02-06T10:30:06.706Z,7.8
2019-02-06T10:31:08.359Z,7.9
2019-02-06T10:32:09.800Z,7.9
2019-02-06T10:33:10.905Z,7.9
2019-02-06T10:34:12.334Z,7.9
2019-02-06T10:35:13.893Z,7.8
2019-02-06T10:36:16.902Z,7.8
2019-02-06T10:37:18.754Z,7.7
2019-02-06T10:38:20.188Z,7.7
2019-02-06T10:39:21.778Z,7.6
2019-02-06T10:40:23.380Z,7.5
2019-02-06T10:41:24.954Z,7.4
2019-02-06T10:42:26.516Z,7.3
2019-02-06T10:43:37.059Z,7.2
2019-02-06T10:44:38.640Z,7.2
2019-02-06T10:45:40.239Z,7.2
2019-02-06T10:46:41.487Z,7.2
2019-02-06T10:47:44.358Z,7.2
2019-02-06T10:48:45.983Z,7.2
2019-02-06T10:49:47.542Z,7.2
2019-02-06T10:50:49.354Z,7.2
2019-02-06T10:51:50.917Z,7.3
2019-02-06T10:52:52.530Z,7.3
2019-02-06T10:53:54.110Z,7.3
2019-02-06T10:54:55.696Z,7.4
2019-02-06T10:55:57.281Z,7.4
2019-02-06T10:57:00.306Z,7.5
2019-02-06T10:58:02.166Z,7.5
2019-02-06T10:59:03.278Z,7.5
2019-02-06T11:00:04.696Z,7.5
2019-02-06T11:01:06.349Z,7.5
2019-02-06T11:02:07.895Z,7.5
2019-02-06T11:03:09.493Z,7.5
2019-02-06T11:04:10.911Z,7.5
2019-02-06T11:05:12.311Z,7.6
2019-02-06T11:06:14.502Z,7.6
2019-02-06T11:07:15.675Z,7.6
2019-02-06T11:08:17.468Z,7.6
2019-02-06T11:09:19.035Z,7.6
2019-02-06T11:10:20.614Z,7.6
2019-02-06T11:11:21.925Z,7.5
2019-02-06T11:12:26.092Z,7.5
2019-02-06T11:13:27.674Z,7.5
2019-02-06T11:14:29.077Z,7.5
2019-02-06T11:15:30.627Z,7.4
2019-02-06T11:16:33.662Z,7.4
2019-02-06T11:17:35.244Z,7.4
2019-02-06T11:18:36.672Z,7.4
2019-02-06T11:19:38.085Z,7.4
2019-02-06T11:20:39.656Z,7.5
2019-02-06T11:21:41.313Z,7.4
2019-02-06T11:22:42.914Z,7.5
2019-02-06T11:23:44.476Z,7.5
2019-02-06T11:24:46.057Z,7.5
2019-02-06T11:25:48.736Z,7.5
2019-02-06T11:26:50.424Z,7.5
2019-02-06T11:27:52.003Z,7.5
2019-02-06T11:28:53.572Z,7.5
2019-02-06T11:29:55.136Z,7.5
2019-02-06T11:30:59.025Z,7.5
2019-02-06T11:32:00.613Z,7.5
2019-02-06T11:33:01.854Z,7.5
2019-02-06T11:34:03.451Z,7.5
2019-02-06T11:35:05.027Z,7.5
2019-02-06T11:36:08.024Z,7.5
2019-02-06T11:37:09.787Z,7.5
2019-02-06T11:38:11.498Z,7.4
2019-02-06T11:39:12.923Z,7.4
2019-02-06T11:40:16.606Z,7.4
2019-02-06T11:41:18.040Z,7.5
2019-02-06T11:42:19.696Z,7.5
2019-02-06T11:43:21.283Z,7.5
2019-02-06T11:44:22.905Z,7.5
2019-02-06T11:45:24.159Z,7.5
2019-02-06T11:46:27.099Z,7.5
2019-02-06T11:47:28.875Z,7.5
2019-02-06T11:48:30.466Z,7.6
2019-02-06T11:49:31.745Z,7.6
2019-02-06T11:50:33.527Z,7.6
2019-02-06T11:51:35.219Z,7.6
2019-02-06T11:52:36.868Z,7.6
2019-02-06T11:53:38.159Z,7.7
2019-02-06T11:54:39.584Z,7.7
2019-02-06T11:55:42.291Z,7.7
2019-02-06T11:56:43.851Z,7.8
2019-02-06T11:57:45.425Z,7.7
2019-02-06T11:58:47.117Z,7.8
2019-02-06T11:59:48.545Z,7.8
2019-02-06T12:00:50.466Z,7.8
2019-02-06T12:01:51.894Z,7.8
2019-02-06T12:02:53.301Z,7.8
2019-02-06T12:03:54.435Z,7.7
2019-02-06T12:04:56.096Z,7.6
2019-02-06T12:05:57.785Z,7.5
2019-02-06T12:06:59.439Z,7.4
2019-02-06T12:08:01.005Z,7.3
2019-02-06T12:09:02.597Z,7.2
2019-02-06T12:10:11.279Z,7.2
2019-02-06T12:11:12.854Z,7.2
2019-02-06T12:12:14.402Z,7.2
2019-02-06T12:13:15.993Z,7.1
2019-02-06T12:14:17.556Z,7.2
2019-02-06T12:15:19.977Z,7.1
2019-02-06T12:16:23.872Z,7.2
2019-02-06T12:17:25.819Z,7.2
2019-02-06T12:18:27.524Z,7.2
2019-02-06T12:19:29.173Z,7.2
2019-02-06T12:20:30.285Z,7.2
2019-02-06T12:21:31.853Z,7.2
2019-02-06T12:22:33.447Z,7.2
2019-02-06T12:23:34.862Z,7.2
2019-02-06T12:24:36.312Z,7.2
2019-02-06T12:25:39.475Z,7.3
2019-02-06T12:26:40.837Z,7.3
2019-02-06T12:27:42.274Z,7.4
2019-02-06T12:28:43.854Z,7.4
2019-02-06T12:29:45.304Z,7.6
2019-02-06T12:30:46.935Z,7.7
2019-02-06T12:31:48.704Z,7.8
2019-02-06T12:32:53.847Z,7.9
2019-02-06T12:33:55.518Z,7.9
2019-02-06T12:34:57.114Z,7.9
2019-02-06T12:36:00.339Z,7.9
2019-02-06T12:37:02.101Z,7.9
2019-02-06T12:38:03.608Z,7.9
2019-02-06T12:39:05.029Z,7.9
2019-02-06T12:40:06.275Z,7.9
2019-02-06T12:41:07.892Z,7.9
2019-02-06T12:42:09.507Z,7.9
2019-02-06T12:43:12.111Z,7.9
2019-02-06T12:44:15.421Z,7.9
2019-02-06T12:45:17.086Z,7.9
2019-02-06T12:46:18.695Z,7.9
2019-02-06T12:47:20.300Z,7.9
2019-02-06T12:48:21.597Z,7.9
2019-02-06T12:49:23.045Z,7.9
2019-02-06T12:50:24.470Z,7.9
2019-02-06T12:51:26.166Z,7.9
2019-02-06T12:52:27.462Z,7.9
2019-02-06T12:53:31.540Z,7.9
2019-02-06T12:54:33.223Z,7.9
2019-02-06T12:55:34.648Z,7.9
2019-02-06T12:56:36.210Z,7.9
2019-02-06T12:57:39.095Z,7.9
2019-02-06T12:58:40.715Z,7.9
2019-02-06T12:59:42.184Z,7.9
2019-02-06T13:00:43.703Z,7.8
2019-02-06T13:01:45.407Z,7.8
2019-02-06T13:02:47.731Z,7.9
2019-02-06T13:03:49.297Z,7.2
2019-02-06T13:04:50.731Z,7.3
2019-02-06T13:05:52.158Z,7.3
2019-02-06T13:06:53.746Z,7.3
2019-02-06T13:07:55.159Z,7.3
2019-02-06T13:08:56.595Z,7.3
2019-02-06T13:09:58.171Z,7.3
2019-02-06T13:10:59.764Z,7.4
2019-02-06T13:12:01.542Z,7.4
2019-02-06T13:13:03.886Z,7.5
2019-02-06T13:14:05.835Z,7.5
2019-02-06T13:15:07.439Z,7.6
2019-02-06T13:16:09.008Z,7.6
2019-02-06T13:17:10.592Z,7.7
2019-02-06T13:18:12.205Z,7.8
2019-02-06T13:19:13.647Z,7.9
2019-02-06T13:20:15.233Z,7.9
2019-02-06T13:21:16.828Z,7.9
2019-02-06T13:22:19.953Z,7.9
2019-02-06T13:23:21.852Z,7.9
2019-02-06T13:24:23.449Z,7.7
2019-02-06T13:25:25.174Z,7.7
2019-02-06T13:26:26.763Z,7.8
2019-02-06T13:27:28.195Z,7.9
2019-02-06T13:28:29.604Z,7.9
2019-02-06T13:29:31.178Z,7.9
2019-02-06T13:30:32.443Z,7.9
2019-02-06T13:31:34.094Z,7.9
2019-02-06T13:32:35.494Z,7.9
2019-02-06T13:33:37.365Z,7.9
2019-02-06T13:34:38.625Z,7.9
2019-02-06T13:35:40.207Z,7.2
2019-02-06T13:36:41.787Z,7.3
2019-02-06T13:37:43.196Z,7.3
2019-02-06T13:38:44.635Z,7.4
2019-02-06T13:39:46.061Z,7.4
2019-02-06T13:40:47.574Z,7.5
2019-02-06T13:41:50.844Z,7.5
2019-02-06T13:42:52.433Z,7.6
2019-02-06T13:43:53.873Z,7.7
2019-02-06T13:44:55.453Z,7.7
2019-02-06T13:45:56.941Z,7.7
2019-02-06T13:46:58.565Z,7.8
2019-02-06T13:48:00.003Z,7.8
2019-02-06T13:49:01.292Z,7.7
2019-02-06T13:50:02.592Z,7.7
2019-02-06T13:51:20.609Z,7.6
2019-02-06T13:52:22.109Z,7.5
2019-02-06T13:53:24.411Z,7.4
2019-02-06T13:54:25.978Z,7.3
2019-02-06T13:55:27.583Z,7.2
2019-02-06T13:56:29.147Z,7.1
2019-02-06T13:57:35.473Z,7.1
2019-02-06T13:58:36.906Z,7.1
2019-02-06T13:59:38.558Z,7.1
2019-02-06T14:00:40.195Z,7.2
2019-02-06T14:01:41.803Z,7.1
2019-02-06T14:02:43.398Z,7.1
2019-02-06T14:03:45.435Z,7.1
2019-02-06T14:04:47.355Z,7.2
2019-02-06T14:05:49.097Z,7.2
2019-02-06T14:06:50.515Z,7.2
2019-02-06T14:07:51.833Z,7.2
2019-02-06T14:08:53.276Z,7.2
2019-02-06T14:09:54.930Z,7.2
2019-02-06T14:11:02.395Z,7.2
2019-02-06T14:12:03.788Z,7.2
2019-02-06T14:13:05.062Z,7.3
2019-02-06T14:14:06.491Z,7.3